KRAL/RAL METAR and TAF weather

Enter ICAO airport designator
Station Type Date Time Source
KRAL METAR 2019/08/23 17:53 UTC NOAA

KRAL 231753Z 27004KT 4SM HZ SCT013 22/16 A2991 RMK AO2 SLP114 T02220156 10222 20156 50004


Station Type Date Time Source
KRAL Decoded METAR 2019/08/23 17:53 UTC NOAA

Station name not available
Aug 23, 2019 - 01:53 PM EDT / 2019.08.23 1753 UTC
Wind: from the W (270 degrees) at 5 MPH (4 KT):0
Visibility: 4 mile(s):0
Sky conditions: partly cloudy
Weather: haze
Temperature: 72.0 F (22.2 C)
Dew Point: 60.1 F (15.6 C)
Relative Humidity: 66%
Pressure (altimeter): 29.91 in. Hg (1012 hPa)
Pressure tendency: 0.01 inches (0.4 hPa) higher than three hours ago
ob: KRAL 231753Z 27004KT 4SM HZ SCT013 22/16 A2991 RMK AO2 SLP114 T02220156 10222 20156 50004
cycle: 18

Station Type Date Time Source
KRAL TAF UTC NOAA

Error!

Example: see airport list